sensor_id;sensor_type;location;lat;lon;timestamp;P1;durP1;ratioP1;P2;durP2;ratioP2
15228;SDS011;7717;47.792;12.076;2023-10-19T00:01:40;14.77;;;12.73;;
15228;SDS011;7717;47.792;12.076;2023-10-19T00:04:25;15.47;;;12.83;;
15228;SDS011;7717;47.792;12.076;2023-10-19T00:07:11;15.77;;;12.90;;
15228;SDS011;7717;47.792;12.076;2023-10-19T00:10:01;14.77;;;12.57;;
15228;SDS011;7717;47.792;12.076;2023-10-19T00:12:51;18.97;;;13.87;;
15228;SDS011;7717;47.792;12.076;2023-10-19T00:15:45;16.93;;;13.20;;
15228;SDS011;7717;47.792;12.076;2023-10-19T00:18:34;17.80;;;12.87;;
15228;SDS011;7717;47.792;12.076;2023-10-19T00:21:20;17.47;;;13.00;;
15228;SDS011;7717;47.792;12.076;2023-10-19T00:24:06;17.40;;;13.47;;
15228;SDS011;7717;47.792;12.076;2023-10-19T00:26:52;16.70;;;13.63;;
15228;SDS011;7717;47.792;12.076;2023-10-19T00:29:40;17.77;;;14.00;;
15228;SDS011;7717;47.792;12.076;2023-10-19T00:32:25;16.00;;;12.93;;
15228;SDS011;7717;47.792;12.076;2023-10-19T00:35:14;16.13;;;13.10;;
15228;SDS011;7717;47.792;12.076;2023-10-19T00:38:13;16.43;;;13.97;;
15228;SDS011;7717;47.792;12.076;2023-10-19T00:41:25;17.30;;;14.23;;
15228;SDS011;7717;47.792;12.076;2023-10-19T00:44:16;17.30;;;13.37;;
15228;SDS011;7717;47.792;12.076;2023-10-19T00:47:08;21.07;;;14.33;;
15228;SDS011;7717;47.792;12.076;2023-10-19T00:49:58;19.27;;;14.93;;
15228;SDS011;7717;47.792;12.076;2023-10-19T00:52:48;17.97;;;13.43;;
15228;SDS011;7717;47.792;12.076;2023-10-19T00:55:37;15.87;;;13.73;;
15228;SDS011;7717;47.792;12.076;2023-10-19T00:58:23;20.70;;;16.10;;
15228;SDS011;7717;47.792;12.076;2023-10-19T01:01:15;20.30;;;14.70;;
15228;SDS011;7717;47.792;12.076;2023-10-19T01:04:01;20.63;;;14.60;;
15228;SDS011;7717;47.792;12.076;2023-10-19T01:06:49;20.47;;;15.13;;
15228;SDS011;7717;47.792;12.076;2023-10-19T01:10:04;22.07;;;15.70;;
15228;SDS011;7717;47.792;12.076;2023-10-19T01:12:51;21.47;;;15.73;;
15228;SDS011;7717;47.792;12.076;2023-10-19T01:15:37;19.50;;;14.97;;
15228;SDS011;7717;47.792;12.076;2023-10-19T01:18:23;21.17;;;15.73;;
15228;SDS011;7717;47.792;12.076;2023-10-19T01:21:14;21.97;;;16.10;;
15228;SDS011;7717;47.792;12.076;2023-10-19T01:24:07;21.53;;;15.77;;
15228;SDS011;7717;47.792;12.076;2023-10-19T01:26:53;20.40;;;15.27;;
15228;SDS011;7717;47.792;12.076;2023-10-19T01:29:39;19.63;;;15.47;;
15228;SDS011;7717;47.792;12.076;2023-10-19T01:32:28;18.40;;;14.77;;
15228;SDS011;7717;47.792;12.076;2023-10-19T01:35:14;19.70;;;15.20;;
15228;SDS011;7717;47.792;12.076;2023-10-19T01:37:59;20.80;;;15.17;;
15228;SDS011;7717;47.792;12.076;2023-10-19T01:40:45;19.33;;;14.97;;
15228;SDS011;7717;47.792;12.076;2023-10-19T01:43:34;20.20;;;15.30;;
15228;SDS011;7717;47.792;12.076;2023-10-19T01:46:20;21.23;;;14.10;;
15228;SDS011;7717;47.792;12.076;2023-10-19T01:49:19;18.83;;;14.30;;
15228;SDS011;7717;47.792;12.076;2023-10-19T01:52:13;22.43;;;16.10;;
15228;SDS011;7717;47.792;12.076;2023-10-19T01:55:01;21.57;;;15.43;;
15228;SDS011;7717;47.792;12.076;2023-10-19T01:57:53;26.40;;;17.03;;
15228;SDS011;7717;47.792;12.076;2023-10-19T02:00:38;23.37;;;17.90;;
15228;SDS011;7717;47.792;12.076;2023-10-19T02:03:25;24.00;;;17.07;;
15228;SDS011;7717;47.792;12.076;2023-10-19T02:06:14;23.60;;;16.20;;
15228;SDS011;7717;47.792;12.076;2023-10-19T02:09:08;21.73;;;16.93;;
15228;SDS011;7717;47.792;12.076;2023-10-19T02:12:12;22.10;;;16.53;;
15228;SDS011;7717;47.792;12.076;2023-10-19T02:14:57;22.70;;;17.53;;
15228;SDS011;7717;47.792;12.076;2023-10-19T02:17:46;22.33;;;17.10;;
15228;SDS011;7717;47.792;12.076;2023-10-19T02:20:32;22.13;;;16.63;;
15228;SDS011;7717;47.792;12.076;2023-10-19T02:23:18;20.93;;;15.57;;
15228;SDS011;7717;47.792;12.076;2023-10-19T02:26:04;21.57;;;16.37;;
15228;SDS011;7717;47.792;12.076;2023-10-19T02:28:50;21.27;;;15.37;;
15228;SDS011;7717;47.792;12.076;2023-10-19T02:31:36;19.90;;;15.50;;
15228;SDS011;7717;47.792;12.076;2023-10-19T02:34:28;18.33;;;14.67;;
15228;SDS011;7717;47.792;12.076;2023-10-19T02:37:14;18.83;;;14.67;;
15228;SDS011;7717;47.792;12.076;2023-10-19T02:39:59;20.27;;;15.17;;
15228;SDS011;7717;47.792;12.076;2023-10-19T02:42:46;18.27;;;14.80;;
15228;SDS011;7717;47.792;12.076;2023-10-19T02:45:34;18.60;;;14.63;;
15228;SDS011;7717;47.792;12.076;2023-10-19T02:48:19;22.77;;;15.67;;
15228;SDS011;7717;47.792;12.076;2023-10-19T02:51:05;21.83;;;15.50;;
15228;SDS011;7717;47.792;12.076;2023-10-19T02:53:56;20.33;;;15.67;;
15228;SDS011;7717;47.792;12.076;2023-10-19T02:56:46;19.23;;;15.20;;
15228;SDS011;7717;47.792;12.076;2023-10-19T02:59:35;19.93;;;15.10;;
15228;SDS011;7717;47.792;12.076;2023-10-19T03:02:21;20.80;;;15.63;;
15228;SDS011;7717;47.792;12.076;2023-10-19T03:05:07;21.53;;;16.47;;
15228;SDS011;7717;47.792;12.076;2023-10-19T03:08:00;19.10;;;15.40;;
15228;SDS011;7717;47.792;12.076;2023-10-19T03:10:48;22.07;;;17.23;;
15228;SDS011;7717;47.792;12.076;2023-10-19T03:13:49;21.03;;;16.17;;
15228;SDS011;7717;47.792;12.076;2023-10-19T03:16:36;24.60;;;17.77;;
15228;SDS011;7717;47.792;12.076;2023-10-19T03:19:22;21.40;;;17.37;;
15228;SDS011;7717;47.792;12.076;2023-10-19T03:22:07;20.63;;;16.20;;
15228;SDS011;7717;47.792;12.076;2023-10-19T03:24:53;24.17;;;16.73;;
15228;SDS011;7717;47.792;12.076;2023-10-19T03:28:04;19.60;;;15.73;;
15228;SDS011;7717;47.792;12.076;2023-10-19T03:30:57;21.80;;;17.67;;
15228;SDS011;7717;47.792;12.076;2023-10-19T03:33:44;22.70;;;17.00;;
15228;SDS011;7717;47.792;12.076;2023-10-19T03:36:34;21.83;;;17.10;;
15228;SDS011;7717;47.792;12.076;2023-10-19T03:39:19;20.80;;;16.00;;
15228;SDS011;7717;47.792;12.076;2023-10-19T03:42:06;20.93;;;16.40;;
15228;SDS011;7717;47.792;12.076;2023-10-19T03:44:52;20.13;;;15.37;;
15228;SDS011;7717;47.792;12.076;2023-10-19T03:47:42;19.83;;;15.97;;
15228;SDS011;7717;47.792;12.076;2023-10-19T03:50:29;21.73;;;16.03;;
15228;SDS011;7717;47.792;12.076;2023-10-19T03:53:18;22.90;;;16.90;;
15228;SDS011;7717;47.792;12.076;2023-10-19T03:56:04;24.30;;;17.93;;
15228;SDS011;7717;47.792;12.076;2023-10-19T03:58:56;22.80;;;16.60;;
15228;SDS011;7717;47.792;12.076;2023-10-19T04:01:44;20.23;;;15.90;;
15228;SDS011;7717;47.792;12.076;2023-10-19T04:04:29;18.93;;;15.00;;
15228;SDS011;7717;47.792;12.076;2023-10-19T04:07:15;20.37;;;16.40;;
15228;SDS011;7717;47.792;12.076;2023-10-19T04:10:06;22.10;;;16.67;;
15228;SDS011;7717;47.792;12.076;2023-10-19T04:12:52;20.23;;;15.87;;
15228;SDS011;7717;47.792;12.076;2023-10-19T04:15:39;21.37;;;15.60;;
15228;SDS011;7717;47.792;12.076;2023-10-19T04:18:26;21.50;;;15.03;;
15228;SDS011;7717;47.792;12.076;2023-10-19T04:21:12;17.47;;;14.23;;
15228;SDS011;7717;47.792;12.076;2023-10-19T04:23:58;21.23;;;15.57;;
15228;SDS011;7717;47.792;12.076;2023-10-19T04:26:44;18.50;;;14.67;;
15228;SDS011;7717;47.792;12.076;2023-10-19T04:29:30;15.87;;;13.50;;
15228;SDS011;7717;47.792;12.076;2023-10-19T04:32:16;15.37;;;13.53;;
15228;SDS011;7717;47.792;12.076;2023-10-19T04:35:10;19.23;;;13.93;;
15228;SDS011;7717;47.792;12.076;2023-10-19T04:37:58;17.23;;;14.37;;
15228;SDS011;7717;47.792;12.076;2023-10-19T04:40:45;19.97;;;15.27;;
15228;SDS011;7717;47.792;12.076;2023-10-19T04:43:30;19.33;;;15.30;;
15228;SDS011;7717;47.792;12.076;2023-10-19T04:46:16;17.73;;;14.90;;
15228;SDS011;7717;47.792;12.076;2023-10-19T04:49:04;20.93;;;15.47;;
15228;SDS011;7717;47.792;12.076;2023-10-19T04:51:49;19.90;;;14.10;;
15228;SDS011;7717;47.792;12.076;2023-10-19T04:54:35;17.07;;;14.70;;
15228;SDS011;7717;47.792;12.076;2023-10-19T04:57:22;17.17;;;14.17;;
15228;SDS011;7717;47.792;12.076;2023-10-19T05:00:08;16.90;;;13.83;;
15228;SDS011;7717;47.792;12.076;2023-10-19T05:02:58;22.33;;;16.73;;
15228;SDS011;7717;47.792;12.076;2023-10-19T05:05:44;19.77;;;15.87;;
15228;SDS011;7717;47.792;12.076;2023-10-19T05:08:30;22.20;;;16.70;;
15228;SDS011;7717;47.792;12.076;2023-10-19T05:11:18;23.53;;;17.97;;
15228;SDS011;7717;47.792;12.076;2023-10-19T05:14:03;22.57;;;15.97;;
15228;SDS011;7717;47.792;12.076;2023-10-19T05:16:50;21.23;;;15.77;;
15228;SDS011;7717;47.792;12.076;2023-10-19T05:19:36;18.80;;;15.40;;
15228;SDS011;7717;47.792;12.076;2023-10-19T05:22:23;18.43;;;14.43;;
15228;SDS011;7717;47.792;12.076;2023-10-19T05:25:10;19.57;;;15.13;;
15228;SDS011;7717;47.792;12.076;2023-10-19T05:27:56;20.90;;;15.67;;
15228;SDS011;7717;47.792;12.076;2023-10-19T05:30:41;19.67;;;14.73;;
15228;SDS011;7717;47.792;12.076;2023-10-19T05:33:27;19.23;;;14.93;;
15228;SDS011;7717;47.792;12.076;2023-10-19T05:36:14;19.07;;;16.10;;
15228;SDS011;7717;47.792;12.076;2023-10-19T05:39:00;20.00;;;15.87;;
15228;SDS011;7717;47.792;12.076;2023-10-19T05:41:45;16.80;;;14.63;;
15228;SDS011;7717;47.792;12.076;2023-10-19T05:44:31;18.13;;;14.90;;
15228;SDS011;7717;47.792;12.076;2023-10-19T05:47:17;17.93;;;15.57;;
15228;SDS011;7717;47.792;12.076;2023-10-19T05:50:02;17.43;;;14.17;;
15228;SDS011;7717;47.792;12.076;2023-10-19T05:52:49;18.53;;;15.30;;
15228;SDS011;7717;47.792;12.076;2023-10-19T05:55:37;15.73;;;13.23;;
15228;SDS011;7717;47.792;12.076;2023-10-19T05:58:24;16.60;;;14.03;;
15228;SDS011;7717;47.792;12.076;2023-10-19T06:01:10;17.77;;;14.77;;
15228;SDS011;7717;47.792;12.076;2023-10-19T06:03:55;18.10;;;15.00;;
15228;SDS011;7717;47.792;12.076;2023-10-19T06:06:41;15.30;;;12.80;;
15228;SDS011;7717;47.792;12.076;2023-10-19T06:09:27;15.97;;;14.10;;
15228;SDS011;7717;47.792;12.076;2023-10-19T06:12:14;17.87;;;14.57;;
15228;SDS011;7717;47.792;12.076;2023-10-19T06:15:00;19.00;;;14.43;;
15228;SDS011;7717;47.792;12.076;2023-10-19T06:17:46;15.50;;;13.13;;
15228;SDS011;7717;47.792;12.076;2023-10-19T06:20:33;21.37;;;14.43;;
15228;SDS011;7717;47.792;12.076;2023-10-19T06:23:20;18.27;;;13.97;;
15228;SDS011;7717;47.792;12.076;2023-10-19T06:26:10;17.70;;;12.80;;
15228;SDS011;7717;47.792;12.076;2023-10-19T06:28:58;17.23;;;14.87;;
15228;SDS011;7717;47.792;12.076;2023-10-19T06:31:54;18.37;;;14.37;;
15228;SDS011;7717;47.792;12.076;2023-10-19T06:34:40;18.73;;;14.30;;
15228;SDS011;7717;47.792;12.076;2023-10-19T06:37:29;18.27;;;14.57;;
15228;SDS011;7717;47.792;12.076;2023-10-19T06:40:15;18.17;;;14.07;;
15228;SDS011;7717;47.792;12.076;2023-10-19T06:43:01;19.23;;;14.20;;
15228;SDS011;7717;47.792;12.076;2023-10-19T06:45:48;18.90;;;15.27;;
15228;SDS011;7717;47.792;12.076;2023-10-19T06:48:34;17.50;;;14.87;;
15228;SDS011;7717;47.792;12.076;2023-10-19T06:51:21;17.30;;;14.33;;
15228;SDS011;7717;47.792;12.076;2023-10-19T06:54:07;18.53;;;14.37;;
15228;SDS011;7717;47.792;12.076;2023-10-19T06:56:53;13.83;;;12.43;;
15228;SDS011;7717;47.792;12.076;2023-10-19T06:59:39;17.57;;;13.20;;
15228;SDS011;7717;47.792;12.076;2023-10-19T07:02:24;14.93;;;13.33;;
15228;SDS011;7717;47.792;12.076;2023-10-19T07:05:11;17.50;;;13.87;;
15228;SDS011;7717;47.792;12.076;2023-10-19T07:07:59;14.53;;;12.63;;
15228;SDS011;7717;47.792;12.076;2023-10-19T07:10:45;16.43;;;14.67;;
15228;SDS011;7717;47.792;12.076;2023-10-19T07:13:30;15.63;;;13.63;;
15228;SDS011;7717;47.792;12.076;2023-10-19T07:16:19;16.77;;;13.73;;
15228;SDS011;7717;47.792;12.076;2023-10-19T07:19:05;16.50;;;13.67;;
15228;SDS011;7717;47.792;12.076;2023-10-19T07:21:51;17.73;;;13.17;;
15228;SDS011;7717;47.792;12.076;2023-10-19T07:24:42;17.93;;;14.07;;
15228;SDS011;7717;47.792;12.076;2023-10-19T07:27:28;15.63;;;13.67;;
15228;SDS011;7717;47.792;12.076;2023-10-19T07:30:14;18.37;;;14.53;;
15228;SDS011;7717;47.792;12.076;2023-10-19T07:33:00;15.67;;;13.50;;
15228;SDS011;7717;47.792;12.076;2023-10-19T07:35:50;15.43;;;13.83;;
15228;SDS011;7717;47.792;12.076;2023-10-19T07:38:56;14.97;;;13.00;;
15228;SDS011;7717;47.792;12.076;2023-10-19T07:41:42;17.57;;;14.87;;
15228;SDS011;7717;47.792;12.076;2023-10-19T07:44:28;20.07;;;14.60;;
15228;SDS011;7717;47.792;12.076;2023-10-19T07:47:15;15.30;;;13.47;;
15228;SDS011;7717;47.792;12.076;2023-10-19T07:50:01;14.10;;;12.60;;
15228;SDS011;7717;47.792;12.076;2023-10-19T07:52:51;14.83;;;12.60;;
15228;SDS011;7717;47.792;12.076;2023-10-19T07:55:39;16.43;;;12.87;;
15228;SDS011;7717;47.792;12.076;2023-10-19T07:58:24;13.63;;;11.67;;
15228;SDS011;7717;47.792;12.076;2023-10-19T08:01:11;17.37;;;13.57;;
15228;SDS011;7717;47.792;12.076;2023-10-19T08:03:57;15.30;;;13.67;;
15228;SDS011;7717;47.792;12.076;2023-10-19T08:06:42;16.87;;;13.87;;
15228;SDS011;7717;47.792;12.076;2023-10-19T08:09:29;18.90;;;13.80;;
15228;SDS011;7717;47.792;12.076;2023-10-19T08:11:58;16.50;;;13.83;;
15228;SDS011;7717;47.792;12.076;2023-10-19T08:14:27;15.97;;;13.20;;
15228;SDS011;7717;47.792;12.076;2023-10-19T08:16:53;14.43;;;12.77;;
15228;SDS011;7717;47.792;12.076;2023-10-19T08:19:38;15.67;;;12.47;;
15228;SDS011;7717;47.792;12.076;2023-10-19T08:22:23;12.37;;;11.07;;
15228;SDS011;7717;47.792;12.076;2023-10-19T08:25:09;13.07;;;10.77;;
15228;SDS011;7717;47.792;12.076;2023-10-19T08:27:59;10.97;;;9.60;;
15228;SDS011;7717;47.792;12.076;2023-10-19T08:30:56;12.73;;;10.57;;
15228;SDS011;7717;47.792;12.076;2023-10-19T08:33:47;13.00;;;10.70;;
15228;SDS011;7717;47.792;12.076;2023-10-19T08:36:33;11.90;;;10.23;;
15228;SDS011;7717;47.792;12.076;2023-10-19T08:39:19;10.80;;;9.37;;
15228;SDS011;7717;47.792;12.076;2023-10-19T08:41:45;11.90;;;9.60;;
15228;SDS011;7717;47.792;12.076;2023-10-19T08:44:13;11.07;;;9.90;;
15228;SDS011;7717;47.792;12.076;2023-10-19T08:47:00;14.53;;;12.63;;
15228;SDS011;7717;47.792;12.076;2023-10-19T08:49:46;26.80;;;21.40;;
15228;SDS011;7717;47.792;12.076;2023-10-19T08:52:31;39.70;;;31.30;;
15228;SDS011;7717;47.792;12.076;2023-10-19T08:55:18;29.70;;;23.33;;
15228;SDS011;7717;47.792;12.076;2023-10-19T08:58:04;17.40;;;14.17;;
15228;SDS011;7717;47.792;12.076;2023-10-19T09:00:51;15.20;;;13.60;;
15228;SDS011;7717;47.792;12.076;2023-10-19T09:03:39;13.47;;;12.07;;
15228;SDS011;7717;47.792;12.076;2023-10-19T09:06:26;11.10;;;10.00;;
15228;SDS011;7717;47.792;12.076;2023-10-19T09:09:13;9.60;;;8.60;;
15228;SDS011;7717;47.792;12.076;2023-10-19T09:12:02;10.93;;;9.37;;
15228;SDS011;7717;47.792;12.076;2023-10-19T09:14:48;10.87;;;9.17;;
15228;SDS011;7717;47.792;12.076;2023-10-19T09:17:14;11.17;;;8.93;;
15228;SDS011;7717;47.792;12.076;2023-10-19T09:19:42;8.60;;;7.80;;
15228;SDS011;7717;47.792;12.076;2023-10-19T09:22:08;9.43;;;8.40;;
15228;SDS011;7717;47.792;12.076;2023-10-19T09:24:42;8.97;;;8.07;;
15228;SDS011;7717;47.792;12.076;2023-10-19T09:27:16;8.90;;;8.00;;
15228;SDS011;7717;47.792;12.076;2023-10-19T09:29:45;10.00;;;8.57;;
15228;SDS011;7717;47.792;12.076;2023-10-19T09:32:11;10.80;;;9.67;;
15228;SDS011;7717;47.792;12.076;2023-10-19T09:34:39;11.57;;;10.00;;
15228;SDS011;7717;47.792;12.076;2023-10-19T09:37:08;11.13;;;10.00;;
15228;SDS011;7717;47.792;12.076;2023-10-19T09:39:34;12.70;;;10.20;;
15228;SDS011;7717;47.792;12.076;2023-10-19T09:42:00;12.43;;;10.80;;
15228;SDS011;7717;47.792;12.076;2023-10-19T09:44:30;10.53;;;9.43;;
15228;SDS011;7717;47.792;12.076;2023-10-19T09:46:57;10.30;;;9.40;;
15228;SDS011;7717;47.792;12.076;2023-10-19T09:49:23;9.47;;;8.57;;
15228;SDS011;7717;47.792;12.076;2023-10-19T09:51:49;11.37;;;8.07;;
15228;SDS011;7717;47.792;12.076;2023-10-19T09:54:20;8.37;;;7.53;;
15228;SDS011;7717;47.792;12.076;2023-10-19T09:56:49;7.53;;;6.83;;
15228;SDS011;7717;47.792;12.076;2023-10-19T09:59:38;7.93;;;6.47;;
15228;SDS011;7717;47.792;12.076;2023-10-19T10:02:12;7.30;;;6.67;;
15228;SDS011;7717;47.792;12.076;2023-10-19T10:04:37;8.53;;;7.10;;
15228;SDS011;7717;47.792;12.076;2023-10-19T10:07:04;7.17;;;6.57;;
15228;SDS011;7717;47.792;12.076;2023-10-19T10:09:31;8.27;;;7.47;;
15228;SDS011;7717;47.792;12.076;2023-10-19T10:12:14;7.67;;;6.93;;
15228;SDS011;7717;47.792;12.076;2023-10-19T10:14:40;8.43;;;7.40;;
15228;SDS011;7717;47.792;12.076;2023-10-19T10:17:17;7.23;;;6.53;;
15228;SDS011;7717;47.792;12.076;2023-10-19T10:19:43;7.07;;;6.37;;
15228;SDS011;7717;47.792;12.076;2023-10-19T10:22:09;6.73;;;6.03;;
15228;SDS011;7717;47.792;12.076;2023-10-19T10:24:42;7.63;;;6.93;;
15228;SDS011;7717;47.792;12.076;2023-10-19T10:27:09;7.03;;;6.33;;
15228;SDS011;7717;47.792;12.076;2023-10-19T10:29:42;7.88;;;6.38;;
15228;SDS011;7717;47.792;12.076;2023-10-19T10:32:42;7.65;;;6.65;;
15228;SDS011;7717;47.792;12.076;2023-10-19T10:35:04;6.47;;;5.78;;
15228;SDS011;7717;47.792;12.076;2023-10-19T10:37:32;5.68;;;4.82;;
15228;SDS011;7717;47.792;12.076;2023-10-19T10:40:01;6.68;;;6.13;;
15228;SDS011;7717;47.792;12.076;2023-10-19T10:42:26;6.90;;;6.30;;
15228;SDS011;7717;47.792;12.076;2023-10-19T10:44:52;7.25;;;6.57;;
15228;SDS011;7717;47.792;12.076;2023-10-19T10:47:21;6.70;;;6.05;;
15228;SDS011;7717;47.792;12.076;2023-10-19T10:49:59;7.78;;;6.90;;
15228;SDS011;7717;47.792;12.076;2023-10-19T10:52:26;7.05;;;6.35;;
15228;SDS011;7717;47.792;12.076;2023-10-19T10:54:51;7.38;;;6.68;;
15228;SDS011;7717;47.792;12.076;2023-10-19T10:57:18;6.18;;;5.60;;
15228;SDS011;7717;47.792;12.076;2023-10-19T10:59:43;7.25;;;6.65;;
15228;SDS011;7717;47.792;12.076;2023-10-19T11:02:18;7.40;;;6.38;;
15228;SDS011;7717;47.792;12.076;2023-10-19T11:04:44;7.78;;;5.90;;
15228;SDS011;7717;47.792;12.076;2023-10-19T11:07:16;6.80;;;6.13;;
15228;SDS011;7717;47.792;12.076;2023-10-19T11:09:45;7.25;;;5.50;;
15228;SDS011;7717;47.792;12.076;2023-10-19T11:12:11;6.75;;;6.10;;
15228;SDS011;7717;47.792;12.076;2023-10-19T11:14:37;6.78;;;6.18;;
15228;SDS011;7717;47.792;12.076;2023-10-19T11:17:11;7.70;;;5.80;;
15228;SDS011;7717;47.792;12.076;2023-10-19T11:19:38;6.10;;;5.60;;
15228;SDS011;7717;47.792;12.076;2023-10-19T11:22:04;6.82;;;5.85;;
15228;SDS011;7717;47.792;12.076;2023-10-19T11:24:34;7.20;;;6.47;;
15228;SDS011;7717;47.792;12.076;2023-10-19T11:27:04;7.40;;;6.75;;
15228;SDS011;7717;47.792;12.076;2023-10-19T11:29:30;7.45;;;6.15;;
15228;SDS011;7717;47.792;12.076;2023-10-19T11:32:01;7.00;;;6.40;;
15228;SDS011;7717;47.792;12.076;2023-10-19T11:34:27;10.67;;;8.13;;
15228;SDS011;7717;47.792;12.076;2023-10-19T11:36:54;7.43;;;6.73;;
15228;SDS011;7717;47.792;12.076;2023-10-19T11:39:22;7.97;;;7.17;;
15228;SDS011;7717;47.792;12.076;2023-10-19T11:41:48;8.90;;;7.57;;
15228;SDS011;7717;47.792;12.076;2023-10-19T11:44:14;8.33;;;6.80;;
15228;SDS011;7717;47.792;12.076;2023-10-19T11:46:39;7.60;;;6.13;;
15228;SDS011;7717;47.792;12.076;2023-10-19T11:49:04;8.27;;;6.70;;
15228;SDS011;7717;47.792;12.076;2023-10-19T11:51:29;7.53;;;6.50;;
15228;SDS011;7717;47.792;12.076;2023-10-19T11:53:56;6.70;;;5.47;;
15228;SDS011;7717;47.792;12.076;2023-10-19T11:56:21;6.30;;;5.70;;
15228;SDS011;7717;47.792;12.076;2023-10-19T11:58:46;5.40;;;5.00;;
15228;SDS011;7717;47.792;12.076;2023-10-19T12:01:12;7.07;;;5.20;;
15228;SDS011;7717;47.792;12.076;2023-10-19T12:03:39;6.70;;;5.97;;
15228;SDS011;7717;47.792;12.076;2023-10-19T12:06:08;5.78;;;5.18;;
15228;SDS011;7717;47.792;12.076;2023-10-19T12:08:34;5.35;;;4.95;;
15228;SDS011;7717;47.792;12.076;2023-10-19T12:10:59;5.43;;;4.97;;
15228;SDS011;7717;47.792;12.076;2023-10-19T12:13:27;5.30;;;4.80;;
15228;SDS011;7717;47.792;12.076;2023-10-19T12:15:53;6.22;;;5.63;;
15228;SDS011;7717;47.792;12.076;2023-10-19T12:18:20;6.55;;;5.72;;
15228;SDS011;7717;47.792;12.076;2023-10-19T12:20:45;6.40;;;5.90;;
15228;SDS011;7717;47.792;12.076;2023-10-19T12:23:11;7.28;;;5.82;;
15228;SDS011;7717;47.792;12.076;2023-10-19T12:25:37;7.88;;;6.13;;
15228;SDS011;7717;47.792;12.076;2023-10-19T12:28:03;6.35;;;5.38;;
15228;SDS011;7717;47.792;12.076;2023-10-19T12:30:29;5.57;;;4.93;;
15228;SDS011;7717;47.792;12.076;2023-10-19T12:33:01;5.82;;;5.22;;
15228;SDS011;7717;47.792;12.076;2023-10-19T12:35:26;5.60;;;5.10;;
15228;SDS011;7717;47.792;12.076;2023-10-19T12:38:18;5.78;;;5.28;;
15228;SDS011;7717;47.792;12.076;2023-10-19T12:40:49;5.90;;;5.40;;
15228;SDS011;7717;47.792;12.076;2023-10-19T12:43:15;5.72;;;5.22;;
15228;SDS011;7717;47.792;12.076;2023-10-19T12:45:43;6.68;;;5.07;;
15228;SDS011;7717;47.792;12.076;2023-10-19T12:48:09;5.15;;;4.65;;
15228;SDS011;7717;47.792;12.076;2023-10-19T12:50:36;6.25;;;5.05;;
15228;SDS011;7717;47.792;12.076;2023-10-19T12:53:02;6.03;;;4.93;;
15228;SDS011;7717;47.792;12.076;2023-10-19T12:55:27;5.07;;;4.68;;
15228;SDS011;7717;47.792;12.076;2023-10-19T12:57:53;5.05;;;4.55;;
15228;SDS011;7717;47.792;12.076;2023-10-19T13:00:19;5.68;;;5.15;;
15228;SDS011;7717;47.792;12.076;2023-10-19T13:03:04;6.45;;;5.85;;
15228;SDS011;7717;47.792;12.076;2023-10-19T13:05:36;6.07;;;5.57;;
15228;SDS011;7717;47.792;12.076;2023-10-19T13:08:05;7.05;;;5.35;;
15228;SDS011;7717;47.792;12.076;2023-10-19T13:10:32;6.63;;;5.60;;
15228;SDS011;7717;47.792;12.076;2023-10-19T13:13:00;5.00;;;4.50;;
15228;SDS011;7717;47.792;12.076;2023-10-19T13:15:30;4.90;;;4.00;;
15228;SDS011;7717;47.792;12.076;2023-10-19T13:17:56;5.20;;;3.67;;
15228;SDS011;7717;47.792;12.076;2023-10-19T13:20:21;4.13;;;3.75;;
15228;SDS011;7717;47.792;12.076;2023-10-19T13:22:48;7.78;;;4.45;;
15228;SDS011;7717;47.792;12.076;2023-10-19T13:25:13;5.93;;;5.38;;
15228;SDS011;7717;47.792;12.076;2023-10-19T13:27:42;3.88;;;3.47;;
15228;SDS011;7717;47.792;12.076;2023-10-19T13:30:07;4.10;;;3.28;;
15228;SDS011;7717;47.792;12.076;2023-10-19T13:32:35;4.65;;;3.22;;
15228;SDS011;7717;47.792;12.076;2023-10-19T13:35:01;4.20;;;2.90;;
15228;SDS011;7717;47.792;12.076;2023-10-19T13:37:26;5.60;;;3.42;;
15228;SDS011;7717;47.792;12.076;2023-10-19T13:39:53;4.22;;;2.95;;
15228;SDS011;7717;47.792;12.076;2023-10-19T13:42:19;3.60;;;3.30;;
15228;SDS011;7717;47.792;12.076;2023-10-19T13:44:44;3.85;;;2.88;;
15228;SDS011;7717;47.792;12.076;2023-10-19T13:47:10;3.05;;;2.75;;
15228;SDS011;7717;47.792;12.076;2023-10-19T13:49:36;3.83;;;2.78;;
15228;SDS011;7717;47.792;12.076;2023-10-19T13:52:02;4.32;;;2.40;;
15228;SDS011;7717;47.792;12.076;2023-10-19T13:54:29;4.07;;;2.63;;
15228;SDS011;7717;47.792;12.076;2023-10-19T13:56:54;4.93;;;2.58;;
15228;SDS011;7717;47.792;12.076;2023-10-19T13:59:20;2.60;;;2.40;;
15228;SDS011;7717;47.792;12.076;2023-10-19T14:01:45;4.10;;;2.88;;
15228;SDS011;7717;47.792;12.076;2023-10-19T14:04:10;2.83;;;2.55;;
15228;SDS011;7717;47.792;12.076;2023-10-19T14:06:36;2.88;;;2.58;;
15228;SDS011;7717;47.792;12.076;2023-10-19T14:09:02;4.03;;;2.55;;
15228;SDS011;7717;47.792;12.076;2023-10-19T14:11:30;2.93;;;2.33;;
15228;SDS011;7717;47.792;12.076;2023-10-19T14:13:55;2.70;;;2.17;;
15228;SDS011;7717;47.792;12.076;2023-10-19T14:16:20;3.70;;;2.47;;
15228;SDS011;7717;47.792;12.076;2023-10-19T14:18:48;4.77;;;4.03;;
15228;SDS011;7717;47.792;12.076;2023-10-19T14:21:13;4.00;;;2.33;;
15228;SDS011;7717;47.792;12.076;2023-10-19T14:23:39;2.37;;;2.10;;
15228;SDS011;7717;47.792;12.076;2023-10-19T14:26:05;3.57;;;2.40;;
15228;SDS011;7717;47.792;12.076;2023-10-19T14:28:31;2.77;;;2.20;;
15228;SDS011;7717;47.792;12.076;2023-10-19T14:30:56;5.00;;;2.27;;
15228;SDS011;7717;47.792;12.076;2023-10-19T14:33:22;3.60;;;2.47;;
15228;SDS011;7717;47.792;12.076;2023-10-19T14:35:47;6.17;;;4.97;;
15228;SDS011;7717;47.792;12.076;2023-10-19T14:38:12;4.53;;;3.27;;
15228;SDS011;7717;47.792;12.076;2023-10-19T14:40:39;5.80;;;3.13;;
15228;SDS011;7717;47.792;12.076;2023-10-19T14:43:09;3.57;;;3.03;;
15228;SDS011;7717;47.792;12.076;2023-10-19T14:45:35;5.47;;;3.23;;
15228;SDS011;7717;47.792;12.076;2023-10-19T14:48:01;2.97;;;2.77;;
15228;SDS011;7717;47.792;12.076;2023-10-19T14:50:33;5.87;;;3.67;;
15228;SDS011;7717;47.792;12.076;2023-10-19T14:52:58;3.40;;;3.10;;
15228;SDS011;7717;47.792;12.076;2023-10-19T14:55:24;4.27;;;3.50;;
15228;SDS011;7717;47.792;12.076;2023-10-19T14:57:50;5.00;;;3.30;;
15228;SDS011;7717;47.792;12.076;2023-10-19T15:00:19;4.57;;;3.17;;
15228;SDS011;7717;47.792;12.076;2023-10-19T15:02:57;6.37;;;3.30;;
15228;SDS011;7717;47.792;12.076;2023-10-19T15:05:26;2.97;;;2.73;;
15228;SDS011;7717;47.792;12.076;2023-10-19T15:07:52;5.77;;;3.97;;
15228;SDS011;7717;47.792;12.076;2023-10-19T15:10:20;5.20;;;3.10;;
15228;SDS011;7717;47.792;12.076;2023-10-19T15:12:46;5.20;;;3.80;;
15228;SDS011;7717;47.792;12.076;2023-10-19T15:15:11;6.67;;;4.53;;
15228;SDS011;7717;47.792;12.076;2023-10-19T15:17:37;10.07;;;7.23;;
15228;SDS011;7717;47.792;12.076;2023-10-19T15:20:04;10.97;;;7.77;;
15228;SDS011;7717;47.792;12.076;2023-10-19T15:22:30;9.13;;;6.00;;
15228;SDS011;7717;47.792;12.076;2023-10-19T15:24:56;5.93;;;5.23;;
15228;SDS011;7717;47.792;12.076;2023-10-19T15:27:21;11.30;;;10.40;;
15228;SDS011;7717;47.792;12.076;2023-10-19T15:29:47;7.00;;;6.40;;
15228;SDS011;7717;47.792;12.076;2023-10-19T15:32:12;8.50;;;5.17;;
15228;SDS011;7717;47.792;12.076;2023-10-19T15:34:38;4.93;;;4.43;;
15228;SDS011;7717;47.792;12.076;2023-10-19T15:37:05;6.90;;;4.73;;
15228;SDS011;7717;47.792;12.076;2023-10-19T15:39:31;5.60;;;3.87;;
15228;SDS011;7717;47.792;12.076;2023-10-19T15:41:56;4.80;;;4.07;;